Weather at Bordeaux-Mérignac Airport

Public forecast

Using degrees Celsius for public forecast. Weather courtesy of forecast.io.

Current aviation weather report (METAR) for Bordeaux-Mérignac Airport

Retrieved 2020/09/22 12:30 UTC (8 minutes ago):

LFBD 221230Z AUTO 31004KT 250V350 9999 FEW022/// BKN078/// BKN120/// ///CB 22/16 Q1014 BECMG BKN025

Aviation forecast (TAF) for Bordeaux-Mérignac Airport

Retrieved 2020/09/22 12:21 UTC (17 minutes ago):

TAF LFBD 221100Z 2212/2318 31008KT 9999 BKN025 TX23/2315Z TN14/2306Z TEMPO 2212/2214 -SHRA BKN020TCU TEMPO 2222/2308 2000 MIFG PROB30 2302/2306 0800 FG VV/// BECMG 2312/2314 25010KT TEMPO 2314/2318 26015G25KT 4000 SHRA BKN020TCU